Time;durP1;ratioP1;P1;durP2;ratioP2;P2;SDS_P1;SDS_P2;PMS_P1;PMS_P2;Temp;Humidity;BMP_temperature;BMP_pressure;BME280_temperature;BME280_humidity;BME280_pressure;Samples;Min_cycle;Max_cycle;Signal;HPM_P1;HPM_P2
2022/10/17 00:00:40;;;;;;;8.90;4.40;;;;;;;4.77;68.26;100214.58;102280;1299;74389;-25
2022/10/17 00:03:07;;;;;;;11.80;4.60;;;;;;;4.60;68.62;100215.91;102297;1302;61103;-25
2022/10/17 00:05:39;;;;;;;9.90;4.90;;;;;;;4.44;69.52;100227.00;102286;1294;61781;-25
2022/10/17 00:08:06;;;;;;;8.00;4.20;;;;;;;4.34;69.55;100230.98;102396;1300;74710;-25
2022/10/17 00:10:33;;;;;;;7.30;3.60;;;;;;;4.29;69.79;100237.48;102198;1302;77022;-25
2022/10/17 00:13:00;;;;;;;9.20;3.50;;;;;;;4.79;69.21;100240.63;102215;1294;75075;-25
2022/10/17 00:15:28;;;;;;;10.70;4.40;;;;;;;5.33;67.35;100243.17;102284;1299;61646;-25
2022/10/17 00:17:55;;;;;;;9.60;4.50;;;;;;;5.43;66.60;100242.27;102128;1302;61677;-25
2022/10/17 00:20:22;;;;;;;4.90;3.30;;;;;;;5.28;66.45;100238.21;102294;1298;74412;-25
2022/10/17 00:22:49;;;;;;;7.90;4.50;;;;;;;5.09;66.90;100236.05;102358;1299;76747;-25
2022/10/17 00:25:16;;;;;;;9.30;4.10;;;;;;;4.90;67.14;100238.30;102120;1301;75254;-25
2022/10/17 00:27:43;;;;;;;8.60;3.80;;;;;;;4.72;67.58;100232.83;102335;1299;61940;-25
2022/10/17 00:30:13;;;;;;;8.40;4.00;;;;;;;4.51;68.21;100240.46;102350;1294;61602;-25
2022/10/17 00:32:40;;;;;;;6.60;3.90;;;;;;;4.34;68.61;100234.40;102375;1302;73868;-25
2022/10/17 00:35:07;;;;;;;7.10;3.90;;;;;;;4.18;68.78;100237.36;102331;1297;75551;-25
2022/10/17 00:37:34;;;;;;;8.50;3.90;;;;;;;4.03;69.27;100241.68;102263;1297;74833;-26
2022/10/17 00:40:02;;;;;;;8.10;3.90;;;;;;;3.92;69.79;100240.70;102253;1300;63678;-25
2022/10/17 00:42:30;;;;;;;4.50;2.80;;;;;;;4.42;69.94;100240.10;102022;1302;62611;-25
2022/10/17 00:45:24;;;;;;;7.20;3.50;;;;;;;5.08;68.49;100236.93;102216;1297;76378;-26
2022/10/17 00:47:57;;;;;;;6.10;3.60;;;;;;;5.17;67.66;100237.77;102036;1297;76716;-25
2022/10/17 00:50:24;;;;;;;6.00;4.10;;;;;;;5.00;67.42;100237.76;102336;1298;75098;-25
2022/10/17 00:52:52;;;;;;;7.10;4.10;;;;;;;4.77;67.82;100232.27;102275;1299;61208;-25
2022/10/17 00:55:24;;;;;;;6.80;3.90;;;;;;;4.53;68.21;100230.27;102333;1299;61801;-25
2022/10/17 00:57:51;;;;;;;7.50;4.30;;;;;;;4.27;68.78;100225.70;102334;1299;76081;-25
2022/10/17 01:00:18;;;;;;;8.00;4.10;;;;;;;4.04;69.31;100229.27;102276;1297;76350;-25
2022/10/17 01:02:45;;;;;;;8.30;3.80;;;;;;;3.83;69.76;100226.38;102275;1291;74164;-25
2022/10/17 01:05:12;;;;;;;10.70;4.80;;;;;;;3.64;69.92;100225.84;102071;1302;61257;-25
2022/10/17 01:07:41;;;;;;;6.40;3.10;;;;;;;3.49;70.73;100223.60;102147;1302;62735;-25
2022/10/17 01:10:08;;;;;;;4.70;3.10;;;;;;;3.88;70.82;100222.24;102366;1298;76346;-25
2022/10/17 01:12:56;;;;;;;8.70;3.60;;;;;;;4.47;69.75;100213.45;102132;1302;76738;-25
2022/10/17 01:15:26;;;;;;;7.60;4.60;;;;;;;4.56;69.09;100207.94;102294;1302;75252;-25
2022/10/17 01:18:28;;;;;;;5.80;3.70;;;;;;;4.35;69.40;100206.85;102293;1298;62709;-25
2022/10/17 01:20:58;;;;;;;7.10;4.00;;;;;;;4.05;70.01;100208.77;102323;1299;62597;-24
2022/10/17 01:23:56;;;;;;;13.80;4.30;;;;;;;3.84;70.87;100213.33;102318;1298;76603;-26
2022/10/17 01:26:32;;;;;;;8.00;4.50;;;;;;;3.64;71.50;100218.10;102184;1298;75443;-25
2022/10/17 01:29:23;;;;;;;9.80;4.60;;;;;;;3.52;71.80;100224.86;101935;1302;72670;-26
2022/10/17 01:32:12;;;;;;;13.00;4.10;;;;;;;3.50;72.24;100221.84;102134;1301;61394;-25
2022/10/17 01:34:56;;;;;;;8.60;3.60;;;;;;;4.15;71.48;100220.98;102109;1300;62588;-25
2022/10/17 01:37:32;;;;;;;8.90;4.10;;;;;;;4.47;69.82;100218.61;102135;1294;76195;-25
2022/10/17 01:40:07;;;;;;;12.40;4.80;;;;;;;4.39;69.72;100214.98;102024;1301;75801;-26
2022/10/17 01:42:49;;;;;;;9.10;3.40;;;;;;;4.19;70.05;100212.92;102080;1294;75123;-25
2022/10/17 01:45:19;;;;;;;14.70;4.70;;;;;;;3.99;70.31;100214.50;102340;1299;62325;-25
2022/10/17 01:47:47;;;;;;;11.40;4.80;;;;;;;3.80;71.02;100218.45;102086;1295;61182;-25
2022/10/17 01:50:27;;;;;;;9.00;4.60;;;;;;;3.65;71.49;100222.86;101989;1302;74153;-25
2022/10/17 01:52:58;;;;;;;13.10;4.30;;;;;;;3.59;71.85;100222.73;102168;1295;75710;-25
2022/10/17 01:55:31;;;;;;;6.10;3.50;;;;;;;4.08;71.05;100213.31;101937;1292;75479;-25
2022/10/17 01:58:08;;;;;;;8.40;4.30;;;;;;;4.47;69.61;100219.47;102050;1297;62096;-25
2022/10/17 02:00:36;;;;;;;8.00;4.20;;;;;;;4.52;69.18;100220.81;102056;1301;61054;-25
2022/10/17 02:03:05;;;;;;;11.70;4.70;;;;;;;4.39;69.14;100219.60;102238;1299;76360;-25
2022/10/17 02:05:35;;;;;;;8.10;3.60;;;;;;;4.17;69.49;100217.48;102055;1302;76496;-25
2022/10/17 02:08:03;;;;;;;7.40;4.60;;;;;;;3.91;70.30;100223.55;101965;1298;75149;-25
2022/10/17 02:10:36;;;;;;;5.90;3.20;;;;;;;3.72;70.73;100222.13;102100;1300;61170;-25
2022/10/17 02:13:18;;;;;;;11.30;4.00;;;;;;;3.54;71.10;100218.08;102294;1298;62829;-25
2022/10/17 02:16:09;;;;;;;3.90;2.60;;;;;;;3.40;71.87;100211.52;102123;1301;75436;-25
2022/10/17 02:18:50;;;;;;;10.40;4.20;;;;;;;4.05;71.32;100211.70;102219;1301;76905;-25
2022/10/17 02:21:42;;;;;;;10.10;4.40;;;;;;;4.52;69.63;100202.61;102326;1299;75319;-25
2022/10/17 02:24:15;;;;;;;12.10;4.20;;;;;;;4.51;69.05;100202.64;102269;1294;61819;-25
2022/10/17 02:27:24;;;;;;;12.30;5.20;;;;;;;4.30;69.30;100210.83;102349;1299;61904;-25
2022/10/17 02:30:16;;;;;;;10.60;5.30;;;;;;;3.95;70.01;100215.13;102050;1299;76982;-25
2022/10/17 02:33:12;;;;;;;13.30;4.60;;;;;;;3.72;70.77;100217.84;102157;1301;75628;-25
2022/10/17 02:35:43;;;;;;;9.50;5.00;;;;;;;3.50;71.50;100226.64;102401;1297;73854;-25
2022/10/17 02:38:10;;;;;;;9.40;4.60;;;;;;;3.38;71.98;100233.57;102109;1301;62235;-25
2022/10/17 02:40:37;;;;;;;8.20;3.00;;;;;;;3.33;72.19;100237.34;102254;1296;63117;-25
2022/10/17 02:43:04;;;;;;;10.30;4.20;;;;;;;3.80;71.70;100240.75;102003;1301;76379;-25
2022/10/17 02:45:34;;;;;;;12.40;4.30;;;;;;;4.30;69.92;100236.98;102331;1293;74641;-25
2022/10/17 02:48:40;;;;;;;8.90;4.20;;;;;;;4.38;69.21;100236.66;102191;1302;74845;-25
2022/10/17 02:51:17;;;;;;;4.90;3.30;;;;;;;4.21;69.13;100235.89;102247;1297;61590;-25
2022/10/17 02:54:09;;;;;;;7.00;3.90;;;;;;;4.00;69.45;100240.23;102239;1302;61867;-25
2022/10/17 02:56:42;;;;;;;6.10;4.30;;;;;;;3.75;70.20;100241.27;102218;1302;76028;-25
2022/10/17 02:59:09;;;;;;;9.10;4.40;;;;;;;3.56;70.73;100238.48;102220;1294;76479;-26
2022/10/17 03:01:36;;;;;;;7.90;3.00;;;;;;;3.40;71.25;100241.40;102253;1302;74893;-25
2022/10/17 03:04:06;;;;;;;5.80;3.60;;;;;;;3.32;71.64;100244.91;102263;1299;63727;-25
2022/10/17 03:06:33;;;;;;;7.60;3.40;;;;;;;3.88;71.13;100247.34;102140;1294;62600;-25
2022/10/17 03:09:00;;;;;;;11.50;4.40;;;;;;;4.36;69.58;100248.92;102345;1299;76355;-25
2022/10/17 03:11:28;;;;;;;10.40;5.00;;;;;;;4.42;68.94;100252.69;102393;1297;76592;-25
2022/10/17 03:13:55;;;;;;;11.30;3.80;;;;;;;4.22;69.03;100249.27;102315;1291;74569;-25
2022/10/17 03:16:22;;;;;;;7.80;5.00;;;;;;;3.98;69.37;100246.66;102317;1299;61115;-25
2022/10/17 03:18:49;;;;;;;8.20;4.90;;;;;;;3.74;69.90;100246.44;102247;1299;61850;-25
2022/10/17 03:21:16;;;;;;;10.50;4.60;;;;;;;3.49;70.86;100246.42;102276;1293;76881;-25
2022/10/17 03:23:43;;;;;;;6.40;4.20;;;;;;;3.30;71.64;100242.55;102306;1299;74795;-25
2022/10/17 03:26:11;;;;;;;9.50;4.00;;;;;;;3.36;72.34;100240.86;102359;1301;74219;-25
2022/10/17 03:28:39;;;;;;;11.90;4.60;;;;;;;3.90;70.92;100241.45;102301;1299;62870;-25
2022/10/17 03:31:08;;;;;;;8.60;4.30;;;;;;;4.17;69.68;100242.58;102324;1299;62740;-25
2022/10/17 03:33:36;;;;;;;6.40;3.70;;;;;;;4.11;69.50;100245.71;102201;1301;76737;-25
2022/10/17 03:36:08;;;;;;;6.10;3.80;;;;;;;3.92;69.82;100248.42;102376;1291;76774;-25
2022/10/17 03:38:35;;;;;;;8.30;4.60;;;;;;;3.70;70.26;100246.44;102037;1301;74035;-25
2022/10/17 03:41:04;;;;;;;10.50;5.20;;;;;;;3.49;71.00;100246.77;102090;1301;61131;-25
2022/10/17 03:43:31;;;;;;;5.50;3.40;;;;;;;3.28;71.54;100240.74;102159;1293;62913;-25
2022/10/17 03:45:58;;;;;;;7.50;5.00;;;;;;;3.09;72.11;100239.61;102244;1292;76549;-25
2022/10/17 03:48:25;;;;;;;3.50;2.10;;;;;;;2.98;72.79;100243.59;101939;1302;76687;-25
2022/10/17 03:51:07;;;;;;;8.80;3.30;;;;;;;3.46;72.50;100248.73;102209;1294;75176;-25
2022/10/17 03:53:39;;;;;;;8.60;4.10;;;;;;;3.97;70.94;100249.63;102255;1298;62629;-25
2022/10/17 03:56:13;;;;;;;11.90;5.40;;;;;;;3.94;70.49;100249.38;102323;1292;62633;-25
2022/10/17 03:58:40;;;;;;;7.40;3.70;;;;;;;3.77;70.62;100253.40;102203;1299;76391;-25
2022/10/17 04:01:09;;;;;;;6.10;3.60;;;;;;;3.55;71.29;100246.25;102284;1298;74509;-25
2022/10/17 04:03:37;;;;;;;6.50;4.20;;;;;;;3.32;72.02;100239.76;102020;1304;74371;-25
2022/10/17 04:06:04;;;;;;;4.80;2.90;;;;;;;3.13;72.91;100240.02;102284;1301;61161;-25
2022/10/17 04:08:33;;;;;;;7.60;3.50;;;;;;;3.01;73.29;100241.92;102244;1297;61822;-25
2022/10/17 04:11:06;;;;;;;9.30;3.70;;;;;;;3.35;72.89;100243.27;102312;1299;76121;-25
2022/10/17 04:13:34;;;;;;;12.30;4.80;;;;;;;3.72;71.36;100242.59;102127;1297;75711;-25
2022/10/17 04:16:06;;;;;;;5.90;4.10;;;;;;;3.78;70.77;100248.89;102297;1299;74911;-25
2022/10/17 04:18:35;;;;;;;4.90;3.10;;;;;;;3.66;71.06;100250.84;102075;1299;61071;-25
2022/10/17 04:21:03;;;;;;;4.70;3.00;;;;;;;3.42;71.65;100246.14;102294;1299;62901;-25
2022/10/17 04:23:30;;;;;;;6.60;3.60;;;;;;;3.25;72.17;100244.79;102079;1300;75293;-25
2022/10/17 04:26:02;;;;;;;4.00;2.50;;;;;;;3.08;72.88;100247.39;102349;1297;75704;-25
2022/10/17 04:28:29;;;;;;;9.40;4.70;;;;;;;3.31;72.96;100254.88;101950;1305;75004;-25
2022/10/17 04:31:14;;;;;;;6.70;3.80;;;;;;;3.84;71.30;100266.58;102296;1298;63004;-25
2022/10/17 04:34:00;;;;;;;5.80;3.80;;;;;;;3.96;70.31;100267.89;102033;1302;62251;-25
2022/10/17 04:36:27;;;;;;;6.80;3.10;;;;;;;3.77;70.58;100266.27;102302;1297;75629;-24
2022/10/17 04:38:54;;;;;;;7.80;3.50;;;;;;;3.54;71.18;100263.59;102327;1299;75848;-25
2022/10/17 04:41:22;;;;;;;5.80;4.00;;;;;;;3.39;71.56;100268.38;102374;1292;75187;-25
2022/10/17 04:43:49;;;;;;;9.90;5.10;;;;;;;3.24;72.04;100267.64;102304;1298;62249;-25
2022/10/17 04:46:18;;;;;;;13.50;5.40;;;;;;;3.09;72.54;100269.48;102363;1297;61877;-25
2022/10/17 04:48:45;;;;;;;12.30;5.40;;;;;;;3.16;72.94;100269.60;102327;1299;75200;-25
2022/10/17 04:51:14;;;;;;;13.50;5.40;;;;;;;3.78;71.73;100274.84;102333;1283;76752;-25
2022/10/17 04:53:57;;;;;;;12.60;5.40;;;;;;;4.13;70.34;100272.95;102132;1302;74040;-25
2022/10/17 04:56:24;;;;;;;10.90;5.60;;;;;;;4.10;69.87;100270.64;102316;1298;62854;-25
2022/10/17 04:58:51;;;;;;;9.60;4.40;;;;;;;3.91;70.23;100275.08;102345;1299;62894;-25
2022/10/17 05:01:20;;;;;;;7.90;4.10;;;;;;;3.75;70.67;100274.44;102373;1299;76485;-25
2022/10/17 05:03:50;;;;;;;5.50;3.20;;;;;;;3.54;71.33;100277.36;102300;1291;76468;-25
2022/10/17 05:06:20;;;;;;;6.00;3.60;;;;;;;3.36;72.04;100278.76;102293;1299;74136;-25
2022/10/17 05:09:01;;;;;;;;;;;;;;;3.25;72.51;100274.14;102111;1298;62119;-25
2022/10/17 05:11:29;;;;;;;8.00;3.70;;;;;;;3.55;72.46;100271.64;102163;1301;62627;-25
2022/10/17 05:13:59;;;;;;;7.50;3.60;;;;;;;4.02;70.96;100272.80;102299;1298;76365;-25
2022/10/17 05:16:28;;;;;;;5.90;3.30;;;;;;;4.14;70.42;100273.97;102122;1301;76901;-25
2022/10/17 05:18:56;;;;;;;5.10;3.30;;;;;;;4.01;70.21;100267.19;102302;1298;75359;-25
2022/10/17 05:21:26;;;;;;;4.80;3.10;;;;;;;3.83;70.90;100264.55;101890;1301;62829;-25
2022/10/17 05:23:53;;;;;;;11.60;5.00;;;;;;;3.77;71.09;100258.04;102209;1302;61441;-25
2022/10/17 05:26:21;;;;;;;10.40;4.20;;;;;;;3.63;71.57;100252.16;102370;1299;76072;-25
2022/10/17 05:28:48;;;;;;;7.90;4.30;;;;;;;3.73;71.80;100256.96;102223;1303;76709;-25
2022/10/17 05:31:16;;;;;;;13.10;3.70;;;;;;;4.32;70.29;100258.54;102334;1305;75157;-26
2022/10/17 05:33:43;;;;;;;7.20;3.10;;;;;;;4.64;68.75;100267.69;102280;1305;61630;-25
2022/10/17 05:36:11;;;;;;;6.80;3.70;;;;;;;4.68;68.86;100273.05;102301;1299;61852;-25
2022/10/17 05:38:38;;;;;;;6.30;4.00;;;;;;;4.61;69.17;100281.05;102337;1299;76120;-25
2022/10/17 05:41:05;;;;;;;9.20;4.00;;;;;;;4.51;69.40;100291.55;102324;1292;76741;-25
2022/10/17 05:43:32;;;;;;;7.40;3.80;;;;;;;4.44;69.61;100299.70;102259;1297;74225;-24
2022/10/17 05:46:06;;;;;;;4.80;2.90;;;;;;;4.41;70.19;100300.19;102118;1300;61806;-24
2022/10/17 05:48:33;;;;;;;10.20;4.50;;;;;;;4.38;69.87;100305.13;102322;1297;61965;-25
2022/10/17 05:51:03;;;;;;;6.20;3.30;;;;;;;4.41;70.17;100316.69;102355;1297;76372;-24
2022/10/17 05:53:31;;;;;;;6.20;4.20;;;;;;;5.04;69.79;100317.13;102220;1301;75583;-24
2022/10/17 05:56:02;;;;;;;5.40;3.40;;;;;;;5.67;67.26;100321.91;102332;1305;74119;-25
2022/10/17 05:58:30;;;;;;;3.10;2.20;;;;;;;5.84;66.19;100317.59;102146;1302;62681;-24
2022/10/17 06:01:28;;;;;;;6.50;3.20;;;;;;;5.77;65.76;100322.69;102025;1308;62532;-25
2022/10/17 06:03:56;;;;;;;5.50;2.90;;;;;;;5.60;65.93;100332.52;102317;1299;76377;-25
2022/10/17 06:06:24;;;;;;;6.20;3.30;;;;;;;5.55;65.99;100336.86;102302;1305;75729;-25
2022/10/17 06:08:51;;;;;;;5.60;3.70;;;;;;;5.48;66.54;100336.42;102323;1299;75023;-25
2022/10/17 06:11:24;;;;;;;6.70;4.80;;;;;;;5.35;66.72;100342.96;102328;1282;61142;-24
2022/10/17 06:13:51;;;;;;;5.30;3.40;;;;;;;5.33;67.02;100351.98;102343;1298;62844;-24
2022/10/17 06:16:21;;;;;;;11.00;4.30;;;;;;;5.34;67.53;100352.98;102300;1299;74021;-24
2022/10/17 06:18:48;;;;;;;6.30;3.50;;;;;;;5.43;67.53;100355.26;102247;1297;76466;-24
2022/10/17 06:21:22;;;;;;;7.80;3.80;;;;;;;5.74;67.15;100359.52;102273;1299;74224;-25
2022/10/17 06:23:51;;;;;;;7.70;3.80;;;;;;;6.53;65.44;100361.27;102002;1297;62747;-24
2022/10/17 06:26:27;;;;;;;8.90;2.90;;;;;;;6.78;63.03;100362.64;101993;1301;63298;-25
2022/10/17 06:28:55;;;;;;;3.70;2.60;;;;;;;6.78;62.98;100364.70;102340;1299;76377;-24
2022/10/17 06:31:23;;;;;;;8.30;3.80;;;;;;;6.76;62.99;100369.27;102370;1291;76681;-25
2022/10/17 06:33:50;;;;;;;5.00;3.40;;;;;;;6.78;63.08;100374.84;102349;1299;75349;-25
2022/10/17 06:36:17;;;;;;;9.90;4.00;;;;;;;6.78;63.14;100375.55;102229;1301;61848;-25
2022/10/17 06:38:44;;;;;;;10.00;4.00;;;;;;;6.83;62.90;100376.02;102274;1299;61814;-24
2022/10/17 06:41:19;;;;;;;6.30;3.20;;;;;;;6.88;63.70;100378.73;102299;1298;76250;-24
2022/10/17 06:43:50;;;;;;;8.40;3.50;;;;;;;7.01;63.30;100380.77;102313;1298;76797;-24
2022/10/17 06:46:37;;;;;;;6.50;3.00;;;;;;;7.08;62.61;100381.13;102263;1291;75165;-25
2022/10/17 06:49:06;;;;;;;7.20;3.50;;;;;;;7.16;62.36;100381.27;102262;1302;61804;-25
2022/10/17 06:51:41;;;;;;;6.40;3.70;;;;;;;7.31;62.01;100386.29;102303;1297;61761;-24
2022/10/17 06:54:11;;;;;;;7.10;3.40;;;;;;;7.53;61.26;100387.36;102345;1298;75301;-24
2022/10/17 06:57:00;;;;;;;4.30;2.60;;;;;;;7.80;61.47;100383.47;102357;1298;76834;-24
2022/10/17 06:59:27;;;;;;;3.50;2.20;;;;;;;8.05;60.35;100385.02;102344;1298;75216;-24
2022/10/17 07:02:08;;;;;;;8.50;2.40;;;;;;;8.26;59.04;100378.96;102044;1301;62752;-25
2022/10/17 07:04:36;;;;;;;9.30;3.30;;;;;;;8.45;58.76;100382.38;102004;1302;61537;-24
2022/10/17 07:07:03;;;;;;;4.60;2.60;;;;;;;8.64;58.40;100380.70;102344;1299;75310;-25
2022/10/17 07:09:32;;;;;;;5.40;3.10;;;;;;;8.80;57.42;100376.77;102085;1294;76564;-25
2022/10/17 07:11:59;;;;;;;3.20;1.90;;;;;;;8.93;57.40;100373.30;102336;1299;73090;-24
2022/10/17 07:14:30;;;;;;;7.50;3.00;;;;;;;9.13;56.29;100364.83;102262;1298;63095;-24
2022/10/17 07:16:58;;;;;;;7.50;3.10;;;;;;;9.22;55.64;100361.74;102325;1297;63009;-25
2022/10/17 07:19:27;;;;;;;8.20;3.10;;;;;;;9.40;55.86;100363.70;102107;1302;75046;-25
2022/10/17 07:21:54;;;;;;;7.70;3.10;;;;;;;9.56;56.00;100361.38;102377;1299;76515;-25
2022/10/17 07:24:21;;;;;;;5.10;3.00;;;;;;;9.69;55.54;100364.30;102293;1299;75199;-24
2022/10/17 07:26:54;;;;;;;4.60;2.40;;;;;;;9.71;54.79;100372.17;102330;1291;61386;-25
2022/10/17 07:29:21;;;;;;;2.20;1.60;;;;;;;9.81;54.73;100373.70;102319;1299;61836;-24
2022/10/17 07:31:57;;;;;;;9.50;2.20;;;;;;;9.88;54.32;100370.00;102316;1299;76398;-24
2022/10/17 07:34:26;;;;;;;9.00;3.50;;;;;;;10.02;54.59;100370.80;102363;1299;76870;-25
2022/10/17 07:36:54;;;;;;;6.80;3.00;;;;;;;10.24;54.77;100367.06;102285;1299;75199;-25
2022/10/17 07:39:21;;;;;;;5.90;2.90;;;;;;;10.44;53.98;100375.48;102289;1299;61838;-25
2022/10/17 07:41:49;;;;;;;4.20;2.70;;;;;;;10.53;53.84;100384.81;102293;1293;62550;-25
2022/10/17 07:44:17;;;;;;;4.20;1.90;;;;;;;10.69;53.19;100390.80;102320;1299;76249;-25
2022/10/17 07:46:47;;;;;;;6.30;3.00;;;;;;;10.69;53.07;100393.77;102190;1285;74700;-25
2022/10/17 07:49:15;;;;;;;4.50;2.80;;;;;;;10.84;53.85;100384.00;102330;1299;75242;-25
2022/10/17 07:51:42;;;;;;;6.30;2.70;;;;;;;10.93;52.62;100380.89;102257;1298;61518;-25
2022/10/17 07:54:09;;;;;;;5.50;2.30;;;;;;;10.89;52.77;100373.63;102320;1298;62922;-24
2022/10/17 07:56:36;;;;;;;5.00;3.00;;;;;;;10.83;53.03;100383.03;102330;1299;75448;-25
2022/10/17 07:59:03;;;;;;;11.20;3.10;;;;;;;10.87;53.04;100389.38;102329;1299;76644;-25
2022/10/17 08:01:35;;;;;;;4.80;2.80;;;;;;;10.93;52.82;100397.57;102312;1299;75147;-25
2022/10/17 08:04:03;;;;;;;9.90;2.70;;;;;;;11.14;52.92;100400.95;102392;1299;61848;-24
2022/10/17 08:06:30;;;;;;;13.40;3.30;;;;;;;11.35;52.50;100407.63;102312;1299;61900;-25
2022/10/17 08:08:57;;;;;;;8.10;3.80;;;;;;;11.54;51.71;100404.89;102244;1299;76323;-24
2022/10/17 08:11:24;;;;;;;10.20;7.30;;;;;;;11.69;51.84;100407.38;102297;1297;74558;-25
2022/10/17 08:13:51;;;;;;;11.90;8.60;;;;;;;11.82;51.84;100409.19;102289;1292;75180;-25
2022/10/17 08:16:18;;;;;;;7.00;5.50;;;;;;;11.98;51.02;100401.05;102318;1297;61325;-25
2022/10/17 08:18:45;;;;;;;7.50;4.90;;;;;;;12.21;51.15;100393.45;102346;1292;61566;-25
2022/10/17 08:21:12;;;;;;;6.20;4.70;;;;;;;12.33;50.83;100387.42;102243;1291;76620;-25
2022/10/17 08:23:39;;;;;;;9.80;3.40;;;;;;;12.51;50.41;100389.84;102311;1299;76591;-24
2022/10/17 08:26:09;;;;;;;9.80;8.70;;;;;;;12.71;50.41;100393.23;102279;1299;74483;-25
2022/10/17 08:28:37;;;;;;;6.80;5.00;;;;;;;12.81;49.71;100396.03;102307;1299;62911;-25
2022/10/17 08:31:07;;;;;;;8.00;3.80;;;;;;;13.06;49.62;100390.27;102059;1302;62851;-25
2022/10/17 08:33:34;;;;;;;4.40;2.50;;;;;;;13.12;48.66;100383.42;102264;1302;76426;-24
2022/10/17 08:36:02;;;;;;;3.80;2.20;;;;;;;13.28;49.45;100383.66;102250;1285;76404;-25
2022/10/17 08:38:29;;;;;;;5.10;3.00;;;;;;;13.61;48.80;100382.03;102158;1300;75087;-25
2022/10/17 08:41:03;;;;;;;3.40;2.20;;;;;;;13.88;48.31;100379.52;102329;1299;61119;-25
2022/10/17 08:43:51;;;;;;;4.90;2.50;;;;;;;13.91;47.24;100373.40;102157;1300;63076;-25
2022/10/17 08:46:18;;;;;;;6.90;3.20;;;;;;;14.03;47.69;100366.05;101196;1302;1210436;-25
2022/10/17 08:48:46;;;;;;;5.50;3.30;;;;;;;14.36;47.38;100365.52;101945;1302;76741;-25
2022/10/17 08:51:22;;;;;;;4.40;2.30;;;;;;;14.47;47.24;100369.34;101998;1301;73658;-26
2022/10/17 08:53:57;;;;;;;4.70;2.40;;;;;;;14.76;46.20;100370.36;102167;1302;61423;-25
2022/10/17 08:56:29;;;;;;;5.10;3.10;;;;;;;14.82;45.65;100373.02;102211;1302;62933;-25
2022/10/17 08:59:25;;;;;;;7.60;4.00;;;;;;;15.19;45.40;100369.39;102326;1300;74272;-25
2022/10/17 09:02:13;;;;;;;4.00;3.00;;;;;;;15.40;45.05;100373.67;102349;1302;76668;-25
2022/10/17 09:05:07;;;;;;;8.70;4.10;;;;;;;15.83;44.84;100373.20;102175;1302;75172;-23
2022/10/17 09:08:06;;;;;;;3.10;2.20;;;;;;;15.79;43.44;100365.68;102218;1301;62622;-23
2022/10/17 09:10:56;;;;;;;2.50;1.70;;;;;;;15.77;43.33;100362.13;102317;1298;61195;-25
2022/10/17 09:13:31;;;;;;;4.50;2.30;;;;;;;15.90;43.39;100358.97;102212;1285;74779;-25
2022/10/17 09:16:09;;;;;;;4.20;1.90;;;;;;;16.03;43.05;100366.73;102228;1299;76821;-25
2022/10/17 09:18:38;;;;;;;8.50;3.30;;;;;;;16.28;42.78;100367.90;102182;1299;74249;-25
2022/10/17 09:21:15;;;;;;;5.10;2.40;;;;;;;16.47;41.88;100366.11;102160;1302;62893;-25
2022/10/17 09:23:46;;;;;;;4.20;2.10;;;;;;;16.59;42.23;100370.55;102320;1291;61520;-25
2022/10/17 09:26:13;;;;;;;6.00;2.90;;;;;;;16.68;41.98;100375.11;102350;1299;76170;-25
2022/10/17 09:28:41;;;;;;;4.70;2.70;;;;;;;16.85;41.97;100376.77;102065;1302;76751;-25
2022/10/17 09:31:31;;;;;;;6.40;2.40;;;;;;;17.03;41.70;100380.20;102003;1296;74118;-25
2022/10/17 09:34:00;;;;;;;3.20;2.30;;;;;;;17.32;40.70;100384.95;102222;1301;61697;-25
2022/10/17 09:36:35;;;;;;;8.30;2.50;;;;;;;17.39;40.64;100389.64;101969;1299;61770;-25
2022/10/17 09:39:13;;;;;;;5.80;3.40;;;;;;;17.69;40.69;100385.44;102167;1302;76340;-23
2022/10/17 09:41:43;;;;;;;5.60;4.50;;;;;;;17.80;40.01;100387.05;102363;1293;76722;-23
2022/10/17 09:44:14;;;;;;;9.50;3.30;;;;;;;17.54;40.65;100380.95;102228;1298;75357;-23
2022/10/17 09:46:47;;;;;;;7.90;4.90;;;;;;;17.52;40.91;100391.88;102215;1294;62857;-23
2022/10/17 09:49:18;;;;;;;8.50;3.90;;;;;;;17.37;40.32;100387.90;102339;1297;61671;-24
2022/10/17 09:51:45;;;;;;;11.70;7.00;;;;;;;17.66;40.49;100377.95;102149;1299;75996;-26
2022/10/17 09:54:21;;;;;;;6.10;4.20;;;;;;;17.62;40.11;100377.60;102087;1301;76772;-25
2022/10/17 09:57:05;;;;;;;9.30;8.20;;;;;;;17.96;40.02;100377.87;102346;1286;74508;-23
2022/10/17 09:59:59;;;;;;;6.60;3.00;;;;;;;17.98;39.47;100381.77;102162;1299;62050;-23
2022/10/17 10:02:28;;;;;;;3.60;2.40;;;;;;;17.92;39.80;100379.11;102304;1299;62685;-23
2022/10/17 10:05:19;;;;;;;8.60;5.00;;;;;;;18.25;39.67;100376.13;102359;1297;76124;-23
2022/10/17 10:08:04;;;;;;;10.70;4.40;;;;;;;18.14;39.68;100378.61;102291;1299;74727;-23
2022/10/17 10:10:32;;;;;;;3.60;2.50;;;;;;;18.48;39.51;100383.66;102126;1299;74377;-24
2022/10/17 10:13:19;;;;;;;4.30;2.70;;;;;;;18.78;38.72;100384.61;102291;1301;62908;-23
2022/10/17 10:15:47;;;;;;;7.00;3.20;;;;;;;18.75;38.57;100388.50;102354;1293;61487;-24
2022/10/17 10:18:24;;;;;;;9.40;3.60;;;;;;;18.56;38.70;100386.26;102349;1292;76102;-23
2022/10/17 10:21:13;;;;;;;6.30;3.50;;;;;;;18.49;38.68;100381.86;102301;1291;76503;-24
2022/10/17 10:23:43;;;;;;;7.40;2.90;;;;;;;18.81;38.52;100382.84;102282;1292;75446;-24
2022/10/17 10:26:23;;;;;;;6.40;4.80;;;;;;;18.96;38.28;100383.59;102357;1294;61730;-24
2022/10/17 10:29:01;;;;;;;5.40;4.00;;;;;;;18.94;37.89;100386.48;102127;1304;62614;-24
2022/10/17 10:31:38;;;;;;;4.80;4.00;;;;;;;18.96;38.31;100386.45;102100;1302;75736;-24
2022/10/17 10:34:14;;;;;;;8.00;4.80;;;;;;;19.22;38.19;100388.20;102354;1299;76835;-24
2022/10/17 10:37:05;;;;;;;7.60;2.80;;;;;;;19.38;37.77;100387.30;101916;1304;75310;-24
2022/10/17 10:39:55;;;;;;;6.50;2.80;;;;;;;19.46;37.93;100378.78;102115;1301;61848;-24
2022/10/17 10:42:28;;;;;;;3.50;2.40;;;;;;;19.63;37.24;100377.14;102326;1302;61793;-24
2022/10/17 10:45:11;;;;;;;11.50;5.90;;;;;;;19.35;37.91;100371.64;102063;1302;75203;-24
2022/10/17 10:48:00;;;;;;;6.00;3.20;;;;;;;19.37;37.60;100368.29;102290;1298;76744;-25
2022/10/17 10:50:37;;;;;;;5.50;3.10;;;;;;;19.60;38.06;100369.02;102315;1293;75092;-24
2022/10/17 10:53:13;;;;;;;5.00;2.50;;;;;;;19.66;37.40;100367.14;102243;1302;62906;-24
2022/10/17 10:56:01;;;;;;;6.60;4.90;;;;;;;19.80;37.68;100365.27;102234;1298;62591;-24
2022/10/17 10:58:47;;;;;;;6.20;3.40;;;;;;;19.68;37.29;100365.36;102097;1294;76417;-24
2022/10/17 11:01:30;;;;;;;5.00;3.10;;;;;;;19.88;38.04;100373.52;102211;1294;77120;-24
2022/10/17 11:04:43;;;;;;;7.50;4.10;;;;;;;20.01;37.22;100368.14;102224;1302;75210;-24
2022/10/17 11:07:21;;;;;;;8.20;4.40;;;;;;;20.07;37.17;100368.41;101533;1309;62735;-24
2022/10/17 11:09:59;;;;;;;5.80;2.70;;;;;;;20.04;37.20;100365.52;101606;1308;62873;-24
2022/10/17 11:12:56;;;;;;;8.20;4.50;;;;;;;19.62;37.78;100363.88;101741;1299;76375;-24
2022/10/17 11:15:47;;;;;;;3.10;2.70;;;;;;;19.38;37.88;100357.59;101924;1291;75868;-24
2022/10/17 11:18:22;;;;;;;6.90;2.90;;;;;;;19.45;37.60;100350.86;102317;1298;74165;-24
2022/10/17 11:20:57;;;;;;;5.60;3.30;;;;;;;19.58;37.80;100355.24;102110;1296;62613;-24
2022/10/17 11:23:29;;;;;;;6.40;2.90;;;;;;;19.53;38.52;100348.19;102217;1295;61862;-24
2022/10/17 11:25:58;;;;;;;4.20;2.80;;;;;;;19.73;38.38;100348.13;102309;1302;76418;-24
2022/10/17 11:28:25;;;;;;;5.50;2.60;;;;;;;19.78;38.56;100345.05;102088;1301;76726;-24
2022/10/17 11:31:00;;;;;;;3.50;2.70;;;;;;;19.69;38.85;100344.33;102307;1299;73902;-24
2022/10/17 11:33:36;;;;;;;4.50;2.50;;;;;;;19.78;38.65;100342.55;102220;1292;62765;-24
2022/10/17 11:36:05;;;;;;;7.90;3.30;;;;;;;19.87;38.30;100338.55;102085;1300;61808;-24
2022/10/17 11:38:37;;;;;;;6.60;3.30;;;;;;;19.94;39.16;100334.52;102322;1299;76649;-24
2022/10/17 11:41:05;;;;;;;8.60;3.70;;;;;;;19.95;38.86;100332.76;101870;1296;76728;-24
2022/10/17 11:43:47;;;;;;;4.80;3.50;;;;;;;19.80;38.64;100329.38;102188;1301;75331;-24
2022/10/17 11:46:23;;;;;;;6.30;2.90;;;;;;;19.91;39.48;100329.51;102305;1302;61297;-24
2022/10/17 11:49:10;;;;;;;4.10;2.60;;;;;;;19.79;38.58;100323.60;102232;1295;61535;-24